createdAt,value
2017-01-04T00:00:08.641Z,21.15
2017-01-04T00:00:49.126Z,21.23
2017-01-04T00:01:29.613Z,21.31
2017-01-04T00:02:10.102Z,21.28
2017-01-04T00:02:50.589Z,21.23
2017-01-04T00:03:31.086Z,21.37
2017-01-04T00:04:11.582Z,21.34
2017-01-04T00:04:52.083Z,21.36
2017-01-04T00:05:32.571Z,21.4
2017-01-04T00:06:13.061Z,21.37
2017-01-04T00:06:53.556Z,21.25
2017-01-04T00:07:34.051Z,21.27
2017-01-04T00:08:14.541Z,21.3
2017-01-04T00:08:55.033Z,21.34
2017-01-04T00:09:35.525Z,21.27
2017-01-04T00:10:16.023Z,21.23
2017-01-04T00:10:56.526Z,21.3
2017-01-04T00:11:37.027Z,21.33
2017-01-04T00:12:17.527Z,21.28
2017-01-04T00:12:58.014Z,21.27
2017-01-04T00:13:38.502Z,21.19
2017-01-04T00:14:18.991Z,21.13
2017-01-04T00:14:59.480Z,21.25
2017-01-04T00:15:39.974Z,21.27
2017-01-04T00:16:20.460Z,21.18
2017-01-04T00:17:00.949Z,21.23
2017-01-04T00:17:41.446Z,21.37
2017-01-04T00:18:21.939Z,21.23
2017-01-04T00:19:02.429Z,21.21
2017-01-04T00:19:42.918Z,21.19
2017-01-04T00:20:23.416Z,21.22
2017-01-04T00:21:03.914Z,21.27
2017-01-04T00:21:44.418Z,21.21
2017-01-04T00:22:24.907Z,21.12
2017-01-04T00:23:05.393Z,21.16
2017-01-04T00:23:45.882Z,21.12
2017-01-04T00:24:26.386Z,21.04
2017-01-04T00:25:06.868Z,21.16
2017-01-04T00:25:47.363Z,21.15
2017-01-04T00:26:27.861Z,21.11
2017-01-04T00:27:08.359Z,21.06
2017-01-04T00:27:48.859Z,21.25
2017-01-04T00:28:29.351Z,21.18
2017-01-04T00:29:09.837Z,21.12
2017-01-04T00:29:50.320Z,21.18
2017-01-04T00:30:30.831Z,21.11
2017-01-04T00:31:11.326Z,21.12
2017-01-04T00:31:51.826Z,21.15
2017-01-04T00:32:32.308Z,21.11
2017-01-04T00:33:12.795Z,21.22
2017-01-04T00:33:53.281Z,21.15
2017-01-04T00:34:33.775Z,21.09
2017-01-04T00:35:14.274Z,21.15
2017-01-04T00:35:54.753Z,21.19
2017-01-04T00:36:35.241Z,21.11
2017-01-04T00:37:15.745Z,21.22
2017-01-04T00:37:56.239Z,21.21
2017-01-04T00:38:36.745Z,21.11
2017-01-04T00:39:17.250Z,21.19
2017-01-04T00:39:57.745Z,21.12
2017-01-04T00:40:38.233Z,21.31
2017-01-04T00:41:18.720Z,21.33
2017-01-04T00:41:59.204Z,21.11
2017-01-04T00:42:39.714Z,21.09
2017-01-04T00:43:20.194Z,21.08
2017-01-04T00:44:00.687Z,21.19
2017-01-04T00:44:41.193Z,21.09
2017-01-04T00:46:38.855Z,21.22
2017-01-04T00:47:19.346Z,21.11
2017-01-04T00:48:00.105Z,21.13
2017-01-04T00:48:40.541Z,21.15
2017-01-04T00:49:21.028Z,21.18
2017-01-04T00:50:01.507Z,21.09
2017-01-04T00:50:42.002Z,21.09
2017-01-04T00:51:22.496Z,21.18
2017-01-04T00:52:02.997Z,21.13
2017-01-04T00:52:43.498Z,21.23
2017-01-04T00:53:23.983Z,21.18
2017-01-04T00:54:04.476Z,21.13
2017-01-04T00:54:44.956Z,21.11
2017-01-04T00:55:25.443Z,21.09
2017-01-04T00:56:05.945Z,21.09
2017-01-04T00:56:46.439Z,21.16
2017-01-04T00:57:26.942Z,21.18
2017-01-04T00:58:07.438Z,21.16
2017-01-04T00:58:47.938Z,21.09
2017-01-04T00:59:28.430Z,21.21
2017-01-04T01:00:08.951Z,21.22
2017-01-04T01:00:49.444Z,20.98
2017-01-04T01:01:29.936Z,21.22
2017-01-04T01:02:10.435Z,21.08
2017-01-04T01:02:50.939Z,21.19
2017-01-04T01:03:31.436Z,21.18
2017-01-04T01:04:11.939Z,21.18
2017-01-04T01:04:52.425Z,21.11
2017-01-04T01:05:32.911Z,21.21
2017-01-04T01:06:13.407Z,21.01
2017-01-04T01:06:53.901Z,21.01
2017-01-04T01:07:34.381Z,21.12
2017-01-04T01:08:14.877Z,21.15
2017-01-04T01:08:55.381Z,21.18
2017-01-04T01:09:35.891Z,21.11
2017-01-04T01:10:16.376Z,21.09
2017-01-04T01:10:56.866Z,21.21
2017-01-04T01:11:37.357Z,21.13
2017-01-04T01:12:17.843Z,21.13
2017-01-04T01:12:58.358Z,21.08
2017-01-04T01:13:38.837Z,21.16
2017-01-04T01:14:19.330Z,21.11
2017-01-04T01:14:59.824Z,21.08
2017-01-04T01:15:40.324Z,21.22
2017-01-04T01:16:20.822Z,21.08
2017-01-04T01:17:01.309Z,21.08
2017-01-04T01:17:41.801Z,21.11
2017-01-04T01:18:22.280Z,21.13
2017-01-04T01:19:02.899Z,21.08
2017-01-04T01:19:43.371Z,21.08
2017-01-04T01:20:23.858Z,21.11
2017-01-04T01:21:04.345Z,21.09
2017-01-04T01:21:44.828Z,21.08
2017-01-04T01:22:25.338Z,21.19
2017-01-04T01:23:05.818Z,21.09
2017-01-04T01:23:46.305Z,21.11
2017-01-04T01:24:26.793Z,21.19
2017-01-04T01:25:07.270Z,21.22
2017-01-04T01:25:47.765Z,21.04
2017-01-04T01:26:28.289Z,21.25
2017-01-04T01:27:08.788Z,21.16
2017-01-04T01:27:49.271Z,21.08
2017-01-04T01:28:29.764Z,21.11
2017-01-04T01:29:10.265Z,21.11
2017-01-04T01:29:50.749Z,21.12
2017-01-04T01:30:31.260Z,21.09
2017-01-04T01:31:11.762Z,21
2017-01-04T01:31:52.242Z,20.96
2017-01-04T01:32:32.755Z,20.98
2017-01-04T01:33:13.259Z,21.01
2017-01-04T01:33:53.760Z,21.06
2017-01-04T01:34:34.259Z,20.97
2017-01-04T01:35:14.744Z,21.03
2017-01-04T01:35:55.247Z,21
2017-01-04T01:36:35.749Z,21.11
2017-01-04T01:37:16.259Z,20.96
2017-01-04T01:37:56.746Z,20.97
2017-01-04T01:38:37.247Z,20.9
2017-01-04T01:39:17.754Z,21.04
2017-01-04T01:39:58.249Z,21.12
2017-01-04T01:40:38.755Z,21.03
2017-01-04T01:41:19.249Z,21.12
2017-01-04T01:41:59.737Z,21.13
2017-01-04T01:42:40.225Z,21.16
2017-01-04T01:43:20.715Z,21.12
2017-01-04T01:44:01.222Z,21.15
2017-01-04T01:44:41.713Z,21.12
2017-01-04T01:45:22.211Z,21.11
2017-01-04T01:46:02.700Z,21.03
2017-01-04T01:46:43.194Z,21.08
2017-01-04T01:47:23.678Z,21.12
2017-01-04T01:48:04.189Z,21.11
2017-01-04T01:48:44.694Z,21.09
2017-01-04T01:49:25.190Z,21.13
2017-01-04T01:50:05.692Z,21.15
2017-01-04T01:50:46.189Z,21.08
2017-01-04T01:51:26.689Z,20.97
2017-01-04T01:52:07.179Z,21.06
2017-01-04T01:52:47.666Z,21
2017-01-04T01:53:28.143Z,21.03
2017-01-04T01:54:08.639Z,21.09
2017-01-04T01:54:49.135Z,21.01
2017-01-04T01:55:29.637Z,21.11
2017-01-04T01:56:10.123Z,21.15
2017-01-04T01:56:50.632Z,21.11
2017-01-04T01:57:31.136Z,21.11
2017-01-04T01:58:11.618Z,21.09
2017-01-04T01:58:52.107Z,21.09
2017-01-04T01:59:32.591Z,21.15
2017-01-04T02:00:13.075Z,21.23
2017-01-04T02:00:53.580Z,21.15
2017-01-04T02:01:34.150Z,20.98
2017-01-04T02:02:14.659Z,20.96
2017-01-04T02:02:55.139Z,21.13
2017-01-04T02:03:35.632Z,21.15
2017-01-04T02:04:16.129Z,21.13
2017-01-04T02:04:56.647Z,21.21
2017-01-04T02:05:37.143Z,21.09
2017-01-04T02:06:17.652Z,21.19
2017-01-04T02:06:58.130Z,20.96
2017-01-04T02:07:38.613Z,21
2017-01-04T02:08:19.101Z,21.11
2017-01-04T02:08:59.578Z,21.12
2017-01-04T02:09:40.060Z,21.11
2017-01-04T02:10:20.548Z,21.06
2017-01-04T02:11:01.041Z,21.11
2017-01-04T02:11:41.547Z,20.91
2017-01-04T02:12:22.031Z,21.18
2017-01-04T02:13:02.540Z,21.03
2017-01-04T02:13:43.024Z,21.21
2017-01-04T02:14:23.506Z,21.11
2017-01-04T02:15:04.017Z,21.09
2017-01-04T02:15:44.498Z,21.13
2017-01-04T02:16:24.989Z,21.13
2017-01-04T02:17:05.472Z,21.09
2017-01-04T02:17:46.558Z,21.22
2017-01-04T02:18:26.462Z,21.12
2017-01-04T02:19:06.956Z,21.08
2017-01-04T02:19:47.447Z,21.04
2017-01-04T02:20:27.935Z,20.98
2017-01-04T02:21:08.432Z,21.01
2017-01-04T02:21:48.924Z,21.04
2017-01-04T02:22:29.430Z,21.11
2017-01-04T02:23:09.921Z,21.06
2017-01-04T02:23:50.433Z,21.16
2017-01-04T02:24:30.927Z,21.08
2017-01-04T02:25:11.431Z,21.12
2017-01-04T02:25:51.913Z,21.11
2017-01-04T02:26:32.407Z,21.11
2017-01-04T02:27:12.901Z,20.97
2017-01-04T02:27:53.394Z,20.98
2017-01-04T02:28:33.903Z,20.98
2017-01-04T02:29:14.384Z,21.06
2017-01-04T02:29:54.875Z,21.11
2017-01-04T02:30:35.357Z,20.91
2017-01-04T02:31:15.849Z,21.03
2017-01-04T02:31:56.336Z,20.94
2017-01-04T02:32:36.840Z,21.08
2017-01-04T02:33:17.331Z,20.93
2017-01-04T02:33:57.839Z,20.97
2017-01-04T02:34:38.334Z,20.97
2017-01-04T02:35:18.835Z,20.93
2017-01-04T02:35:59.338Z,20.91
2017-01-04T02:36:39.838Z,20.97
2017-01-04T02:37:20.339Z,20.96
2017-01-04T02:38:00.825Z,20.96
2017-01-04T02:38:41.314Z,20.93
2017-01-04T02:39:21.795Z,20.93
2017-01-04T02:40:02.279Z,20.86
2017-01-04T02:40:42.765Z,20.91
2017-01-04T02:41:23.257Z,20.98
2017-01-04T02:42:03.757Z,20.94
2017-01-04T02:42:44.242Z,20.93
2017-01-04T02:43:24.735Z,20.98
2017-01-04T02:44:05.229Z,21.03
2017-01-04T02:44:45.731Z,20.97
2017-01-04T02:45:26.229Z,20.97
2017-01-04T02:46:06.717Z,20.96
2017-01-04T02:46:47.204Z,20.94
2017-01-04T02:47:27.689Z,21
2017-01-04T02:48:08.184Z,21.01
2017-01-04T02:48:48.675Z,20.97
2017-01-04T02:49:29.164Z,21.04
2017-01-04T02:50:09.653Z,21
2017-01-04T02:50:50.121Z,21.03
2017-01-04T02:51:30.629Z,20.97
2017-01-04T02:52:11.121Z,20.88
2017-01-04T02:52:51.620Z,20.9
2017-01-04T02:53:32.122Z,20.88
2017-01-04T02:54:12.606Z,20.88
2017-01-04T02:54:53.290Z,20.85
2017-01-04T02:55:33.797Z,20.96
2017-01-04T02:56:14.296Z,20.98
2017-01-04T02:56:54.777Z,20.94
2017-01-04T02:57:35.255Z,20.97
2017-01-04T02:58:15.752Z,20.97
2017-01-04T02:58:56.238Z,20.96
2017-01-04T02:59:36.738Z,20.96
2017-01-04T03:00:17.217Z,21.09
2017-01-04T03:00:57.707Z,21.06
2017-01-04T03:01:38.191Z,21.06
2017-01-04T03:02:18.683Z,21.03
2017-01-04T03:02:59.187Z,20.94
2017-01-04T03:03:39.662Z,20.93
2017-01-04T03:04:20.148Z,20.96
2017-01-04T03:05:00.634Z,20.97
2017-01-04T03:05:41.119Z,20.98
2017-01-04T03:06:21.613Z,20.93
2017-01-04T03:07:02.105Z,21.04
2017-01-04T03:07:42.594Z,21.01
2017-01-04T03:08:23.083Z,21
2017-01-04T03:09:03.567Z,20.97
2017-01-04T03:09:44.057Z,21.03
2017-01-04T03:10:24.558Z,20.91
2017-01-04T03:11:05.040Z,20.94
2017-01-04T03:11:45.530Z,21.01
2017-01-04T03:12:26.017Z,20.94
2017-01-04T03:13:06.519Z,21.12
2017-01-04T03:13:46.999Z,20.91
2017-01-04T03:14:27.493Z,21.12
2017-01-04T03:15:07.995Z,21.04
2017-01-04T03:15:48.488Z,20.96
2017-01-04T03:17:35.967Z,20.88
2017-01-04T03:18:16.468Z,20.79
2017-01-04T03:18:56.978Z,20.94
2017-01-04T03:19:37.458Z,20.83
2017-01-04T03:20:17.942Z,20.94
2017-01-04T03:20:58.422Z,20.94
2017-01-04T03:21:38.906Z,20.97
2017-01-04T03:22:19.404Z,20.82
2017-01-04T03:22:59.912Z,20.81
2017-01-04T03:23:40.408Z,20.9
2017-01-04T03:24:20.910Z,20.88
2017-01-04T03:25:01.411Z,20.97
2017-01-04T03:25:41.912Z,20.78
2017-01-04T03:26:22.391Z,20.91
2017-01-04T03:27:02.875Z,20.96
2017-01-04T03:27:43.376Z,20.88
2017-01-04T03:28:23.855Z,20.9
2017-01-04T03:29:04.341Z,20.93
2017-01-04T03:29:44.829Z,20.93
2017-01-04T03:30:25.311Z,20.96
2017-01-04T03:31:05.806Z,20.98
2017-01-04T03:31:46.294Z,20.97
2017-01-04T03:32:26.787Z,20.94
2017-01-04T03:33:07.275Z,20.94
2017-01-04T03:33:47.772Z,20.94
2017-01-04T03:34:28.266Z,20.83
2017-01-04T03:35:08.749Z,20.85
2017-01-04T03:35:49.405Z,20.91
2017-01-04T03:36:29.894Z,20.88
2017-01-04T03:37:10.398Z,20.96
2017-01-04T03:37:50.891Z,20.97
2017-01-04T03:38:31.398Z,20.93
2017-01-04T03:39:11.887Z,20.78
2017-01-04T03:39:52.380Z,20.91
2017-01-04T03:40:32.870Z,20.78
2017-01-04T03:41:13.367Z,20.88
2017-01-04T03:41:53.846Z,20.86
2017-01-04T03:42:34.331Z,20.78
2017-01-04T03:43:14.886Z,20.81
2017-01-04T03:43:55.381Z,20.94
2017-01-04T03:44:35.867Z,20.94
2017-01-04T03:45:16.365Z,20.85
2017-01-04T03:45:56.841Z,20.94
2017-01-04T03:46:37.334Z,20.78
2017-01-04T03:47:17.846Z,20.94
2017-01-04T03:47:58.341Z,20.82
2017-01-04T03:48:38.833Z,20.91
2017-01-04T03:49:19.341Z,20.94
2017-01-04T03:49:59.834Z,20.86
2017-01-04T03:50:40.337Z,20.82
2017-01-04T03:51:20.831Z,20.83
2017-01-04T03:52:01.327Z,20.86
2017-01-04T03:52:41.812Z,20.82
2017-01-04T03:53:22.294Z,20.83
2017-01-04T03:54:02.783Z,20.88
2017-01-04T03:54:43.268Z,20.9
2017-01-04T03:55:23.767Z,20.93
2017-01-04T03:56:04.253Z,20.91
2017-01-04T03:56:44.733Z,20.93
2017-01-04T03:57:25.228Z,20.86
2017-01-04T03:58:05.723Z,20.81
2017-01-04T03:58:46.215Z,20.78
2017-01-04T03:59:26.699Z,20.76
2017-01-04T04:00:07.187Z,20.78
2017-01-04T04:00:47.679Z,20.94
2017-01-04T04:01:28.172Z,20.85
2017-01-04T04:02:08.665Z,20.81
2017-01-04T04:02:49.147Z,20.9
2017-01-04T04:03:29.631Z,20.98
2017-01-04T04:04:10.120Z,20.91
2017-01-04T04:04:50.618Z,20.93
2017-01-04T04:05:31.110Z,20.83
2017-01-04T04:06:11.795Z,20.78
2017-01-04T04:06:52.280Z,20.85
2017-01-04T04:07:32.791Z,20.86
2017-01-04T04:08:13.267Z,20.81
2017-01-04T04:08:53.765Z,20.71
2017-01-04T04:09:34.261Z,20.78
2017-01-04T04:10:14.757Z,20.97
2017-01-04T04:10:55.240Z,20.97
2017-01-04T04:11:35.726Z,20.97
2017-01-04T04:12:16.216Z,20.94
2017-01-04T04:12:56.710Z,20.82
2017-01-04T04:13:37.194Z,20.79
2017-01-04T04:14:17.689Z,20.76
2017-01-04T04:16:10.273Z,20.81
2017-01-04T04:16:50.767Z,20.85
2017-01-04T04:17:31.249Z,20.9
2017-01-04T04:18:11.740Z,20.81
2017-01-04T04:18:52.236Z,20.93
2017-01-04T04:19:32.724Z,20.78
2017-01-04T04:20:13.215Z,20.91
2017-01-04T04:20:53.695Z,20.91
2017-01-04T04:21:34.180Z,20.97
2017-01-04T04:22:14.672Z,20.78
2017-01-04T04:22:55.151Z,20.81
2017-01-04T04:23:35.644Z,20.93
2017-01-04T04:24:16.137Z,20.9
2017-01-04T04:24:56.634Z,20.93
2017-01-04T04:25:37.143Z,20.93
2017-01-04T04:26:17.628Z,20.97
2017-01-04T04:26:58.113Z,20.91
2017-01-04T04:27:38.599Z,20.83
2017-01-04T04:28:19.089Z,20.68
2017-01-04T04:28:59.584Z,20.76
2017-01-04T04:29:40.075Z,20.76
2017-01-04T04:30:20.558Z,20.81
2017-01-04T04:31:01.057Z,20.82
2017-01-04T04:31:41.553Z,20.93
2017-01-04T04:32:22.035Z,20.83
2017-01-04T04:33:02.535Z,20.9
2017-01-04T04:33:43.029Z,20.83
2017-01-04T04:34:23.523Z,20.97
2017-01-04T04:35:04.029Z,20.94
2017-01-04T04:35:44.516Z,20.86
2017-01-04T04:36:25.018Z,20.78
2017-01-04T04:37:05.545Z,20.81
2017-01-04T04:37:46.027Z,20.88
2017-01-04T04:38:26.510Z,20.9
2017-01-04T04:39:06.996Z,20.78
2017-01-04T04:39:47.476Z,20.66
2017-01-04T04:40:27.957Z,20.91
2017-01-04T04:41:08.448Z,20.79
2017-01-04T04:41:48.940Z,20.86
2017-01-04T04:42:29.442Z,20.79
2017-01-04T04:43:09.933Z,20.81
2017-01-04T04:43:50.420Z,20.83
2017-01-04T04:44:30.914Z,20.76
2017-01-04T04:45:11.405Z,20.74
2017-01-04T04:45:51.893Z,20.61
2017-01-04T04:46:32.661Z,20.72
2017-01-04T04:47:13.095Z,20.76
2017-01-04T04:47:53.579Z,20.75
2017-01-04T04:48:34.071Z,20.9
2017-01-04T04:49:14.556Z,20.75
2017-01-04T04:49:55.055Z,20.71
2017-01-04T04:50:35.541Z,20.78
2017-01-04T04:51:16.022Z,20.88
2017-01-04T04:51:56.520Z,20.72
2017-01-04T04:52:37.003Z,20.83
2017-01-04T04:53:17.496Z,20.79
2017-01-04T04:53:57.985Z,20.83
2017-01-04T04:54:38.468Z,20.97
2017-01-04T04:55:18.958Z,20.93
2017-01-04T04:55:59.458Z,20.93
2017-01-04T04:56:39.935Z,20.97
2017-01-04T04:57:20.431Z,20.97
2017-01-04T04:58:00.905Z,20.91
2017-01-04T04:58:41.393Z,20.85
2017-01-04T04:59:21.879Z,20.93
2017-01-04T05:00:02.365Z,20.93
2017-01-04T05:00:42.859Z,20.75
2017-01-04T05:01:23.353Z,20.76
2017-01-04T05:02:03.834Z,20.78
2017-01-04T05:02:44.324Z,20.86
2017-01-04T05:03:24.807Z,20.81
2017-01-04T05:04:05.298Z,20.83
2017-01-04T05:04:45.790Z,20.83
2017-01-04T05:05:26.292Z,20.88
2017-01-04T05:06:06.810Z,20.76
2017-01-04T05:06:47.320Z,20.85
2017-01-04T05:07:27.802Z,20.76
2017-01-04T05:08:08.295Z,20.78
2017-01-04T05:08:48.791Z,20.85
2017-01-04T05:09:29.277Z,20.76
2017-01-04T05:10:09.768Z,20.76
2017-01-04T05:10:50.255Z,20.96
2017-01-04T05:11:30.742Z,20.76
2017-01-04T05:12:11.234Z,20.9
2017-01-04T05:12:51.710Z,20.78
2017-01-04T05:13:32.203Z,20.81
2017-01-04T05:14:12.690Z,20.97
2017-01-04T05:14:53.173Z,20.9
2017-01-04T05:15:33.657Z,20.74
2017-01-04T05:16:14.142Z,20.67
2017-01-04T05:16:54.633Z,20.76
2017-01-04T05:17:35.308Z,20.82
2017-01-04T05:18:15.794Z,20.81
2017-01-04T05:18:56.288Z,20.72
2017-01-04T05:19:36.774Z,20.82
2017-01-04T05:20:17.272Z,20.79
2017-01-04T05:20:57.783Z,20.74
2017-01-04T05:21:38.269Z,20.71
2017-01-04T05:22:18.777Z,20.82
2017-01-04T05:22:59.273Z,20.79
2017-01-04T05:23:39.771Z,20.64
2017-01-04T05:24:20.278Z,20.63
2017-01-04T05:25:00.778Z,20.71
2017-01-04T05:25:41.266Z,20.85
2017-01-04T05:26:21.752Z,20.85
2017-01-04T05:27:02.245Z,20.91
2017-01-04T05:27:42.742Z,20.76
2017-01-04T05:28:23.232Z,20.74
2017-01-04T05:29:03.726Z,20.68
2017-01-04T05:29:44.220Z,20.71
2017-01-04T05:30:24.707Z,20.81
2017-01-04T05:31:05.194Z,20.67
2017-01-04T05:31:45.682Z,20.67
2017-01-04T05:32:26.170Z,20.78
2017-01-04T05:33:06.669Z,20.67
2017-01-04T05:33:47.158Z,20.61
2017-01-04T05:34:27.642Z,20.68
2017-01-04T05:35:08.123Z,20.63
2017-01-04T05:35:48.617Z,20.79
2017-01-04T05:36:29.108Z,20.66
2017-01-04T05:37:09.600Z,20.68
2017-01-04T05:37:50.085Z,20.72
2017-01-04T05:38:30.567Z,20.71
2017-01-04T05:39:11.062Z,20.78
2017-01-04T05:39:51.554Z,20.78
2017-01-04T05:40:32.044Z,20.71
2017-01-04T05:41:12.530Z,20.81
2017-01-04T05:41:53.015Z,20.68
2017-01-04T05:42:33.510Z,20.67
2017-01-04T05:43:14.000Z,20.67
2017-01-04T05:43:54.487Z,20.78
2017-01-04T05:44:34.980Z,20.78
2017-01-04T05:45:15.461Z,20.83
2017-01-04T05:45:55.950Z,20.79
2017-01-04T05:46:36.452Z,20.78
2017-01-04T05:47:16.941Z,20.76
2017-01-04T05:47:57.426Z,20.83
2017-01-04T05:48:37.900Z,20.74
2017-01-04T05:49:18.385Z,20.78
2017-01-04T05:49:58.873Z,20.79
2017-01-04T05:50:39.356Z,20.74
2017-01-04T05:51:19.848Z,20.88
2017-01-04T05:52:00.333Z,20.71
2017-01-04T05:52:40.826Z,20.71
2017-01-04T05:53:21.314Z,20.71
2017-01-04T05:54:01.797Z,20.76
2017-01-04T05:54:42.277Z,20.71
2017-01-04T05:55:22.782Z,20.71
2017-01-04T05:56:03.283Z,20.68
2017-01-04T05:56:43.782Z,20.81
2017-01-04T05:57:24.286Z,20.67
2017-01-04T05:58:04.784Z,20.6
2017-01-04T05:58:45.279Z,20.63
2017-01-04T05:59:25.782Z,20.68
2017-01-04T06:00:06.275Z,20.67
2017-01-04T06:00:46.757Z,20.71
2017-01-04T06:01:27.238Z,20.81
2017-01-04T06:02:07.730Z,20.88
2017-01-04T06:02:48.220Z,20.75
2017-01-04T06:03:28.700Z,20.61
2017-01-04T06:04:09.193Z,20.76
2017-01-04T06:04:49.673Z,20.79
2017-01-04T06:05:30.164Z,20.78
2017-01-04T06:06:10.646Z,20.82
2017-01-04T06:06:51.126Z,20.64
2017-01-04T06:07:31.622Z,20.66
2017-01-04T06:08:12.115Z,20.81
2017-01-04T06:08:52.617Z,20.71
2017-01-04T06:09:33.113Z,20.64
2017-01-04T06:10:13.607Z,20.64
2017-01-04T06:10:54.117Z,20.71
2017-01-04T06:11:34.609Z,20.67
2017-01-04T06:12:15.112Z,20.72
2017-01-04T06:12:55.602Z,20.82
2017-01-04T06:13:36.085Z,20.78
2017-01-04T06:14:16.575Z,20.82
2017-01-04T06:14:57.061Z,20.93
2017-01-04T06:15:37.553Z,20.79
2017-01-04T06:16:18.060Z,20.91
2017-01-04T06:16:58.554Z,20.82
2017-01-04T06:17:39.059Z,20.94
2017-01-04T06:18:19.556Z,20.82
2017-01-04T06:19:00.048Z,20.63
2017-01-04T06:19:40.552Z,20.64
2017-01-04T06:20:21.059Z,20.78
2017-01-04T06:21:01.554Z,20.79
2017-01-04T06:21:42.048Z,20.78
2017-01-04T06:22:22.540Z,20.66
2017-01-04T06:23:03.045Z,20.67
2017-01-04T06:23:43.550Z,20.74
2017-01-04T06:24:24.053Z,20.74
2017-01-04T06:25:04.549Z,20.61
2017-01-04T06:25:45.049Z,20.78
2017-01-04T06:26:25.550Z,20.78
2017-01-04T06:27:06.041Z,20.81
2017-01-04T06:27:46.535Z,20.68
2017-01-04T06:28:27.021Z,20.74
2017-01-04T06:29:07.519Z,20.68
2017-01-04T06:29:48.002Z,20.68
2017-01-04T06:30:28.495Z,20.66
2017-01-04T06:31:08.986Z,20.71
2017-01-04T06:31:49.489Z,20.72
2017-01-04T06:32:29.995Z,20.78
2017-01-04T06:33:10.479Z,20.88
2017-01-04T06:33:50.965Z,20.88
2017-01-04T06:34:31.466Z,20.81
2017-01-04T06:35:11.955Z,20.78
2017-01-04T06:35:52.437Z,20.71
2017-01-04T06:36:32.940Z,20.66
2017-01-04T06:37:13.438Z,20.78
2017-01-04T06:37:53.926Z,20.68
2017-01-04T06:38:34.410Z,20.78
2017-01-04T06:39:14.895Z,20.91
2017-01-04T06:39:55.407Z,20.83
2017-01-04T06:40:35.890Z,20.91
2017-01-04T06:41:16.382Z,20.68
2017-01-04T06:41:56.950Z,20.75
2017-01-04T06:42:37.433Z,20.79
2017-01-04T06:43:17.924Z,20.74
2017-01-04T06:43:58.421Z,20.78
2017-01-04T06:44:38.930Z,20.79
2017-01-04T06:45:19.428Z,20.79
2017-01-04T06:45:59.915Z,20.78
2017-01-04T06:46:40.402Z,20.67
2017-01-04T06:47:20.883Z,20.79
2017-01-04T06:48:01.376Z,20.63
2017-01-04T06:48:41.869Z,20.75
2017-01-04T06:49:22.361Z,20.68
2017-01-04T06:50:02.844Z,20.63
2017-01-04T06:50:43.331Z,20.68
2017-01-04T06:51:23.822Z,20.83
2017-01-04T06:52:04.318Z,20.71
2017-01-04T06:52:44.803Z,20.68
2017-01-04T06:53:25.290Z,20.6
2017-01-04T06:54:05.777Z,20.66
2017-01-04T06:54:46.268Z,20.63
2017-01-04T06:55:26.760Z,20.6
2017-01-04T06:56:07.236Z,20.53
2017-01-04T06:56:47.731Z,20.67
2017-01-04T06:57:28.219Z,20.53
2017-01-04T06:58:08.706Z,20.56
2017-01-04T06:58:49.210Z,20.64
2017-01-04T06:59:29.697Z,20.71
2017-01-04T07:00:10.184Z,20.79
2017-01-04T07:00:50.679Z,20.66
2017-01-04T07:01:31.181Z,20.71
2017-01-04T07:02:11.660Z,20.63
2017-01-04T07:02:52.147Z,20.82
2017-01-04T07:03:33.476Z,20.75
2017-01-04T07:04:13.127Z,20.82
2017-01-04T07:04:53.618Z,20.66
2017-01-04T07:05:34.101Z,20.53
2017-01-04T07:06:14.594Z,20.56
2017-01-04T07:06:55.099Z,20.6
2017-01-04T07:07:35.584Z,20.67
2017-01-04T07:08:16.070Z,20.78
2017-01-04T07:08:56.562Z,20.91
2017-01-04T07:09:37.069Z,20.78
2017-01-04T07:10:17.559Z,20.78
2017-01-04T07:10:58.067Z,20.76
2017-01-04T07:11:38.548Z,20.88
2017-01-04T07:12:19.026Z,20.68
2017-01-04T07:12:59.514Z,20.72
2017-01-04T07:13:40.030Z,20.66
2017-01-04T07:14:20.511Z,20.66
2017-01-04T07:15:00.985Z,20.61
2017-01-04T07:15:41.976Z,20.79
2017-01-04T07:16:21.958Z,20.68
2017-01-04T07:17:03.227Z,20.66
2017-01-04T07:17:43.710Z,20.61
2017-01-04T07:18:24.790Z,20.74
2017-01-04T07:19:05.289Z,20.71
2017-01-04T07:19:45.766Z,20.71
2017-01-04T07:20:26.278Z,20.61
2017-01-04T07:21:06.758Z,20.64
2017-01-04T07:21:47.244Z,20.66
2017-01-04T07:22:27.734Z,20.72
2017-01-04T07:23:08.977Z,20.66
2017-01-04T07:23:48.679Z,20.81
2017-01-04T07:24:29.178Z,20.88
2017-01-04T07:25:09.664Z,20.78
2017-01-04T07:25:50.140Z,20.83
2017-01-04T07:26:31.547Z,20.71
2017-01-04T07:27:12.910Z,20.82
2017-01-04T07:29:01.561Z,20.94
2017-01-04T07:29:42.560Z,20.91
2017-01-04T07:30:23.071Z,20.97
2017-01-04T07:31:02.905Z,20.97
2017-01-04T07:31:43.382Z,20.88
2017-01-04T07:32:23.871Z,20.93
2017-01-04T07:33:04.355Z,20.88
2017-01-04T07:33:45.560Z,20.91
2017-01-04T07:34:25.280Z,20.83
2017-01-04T07:35:06.560Z,20.97
2017-01-04T07:35:46.273Z,20.97
2017-01-04T07:36:26.772Z,20.79
2017-01-04T07:37:08.063Z,20.76
2017-01-04T07:37:47.710Z,20.91
2017-01-04T07:38:28.211Z,20.93
2017-01-04T07:39:09.287Z,20.85
2017-01-04T07:39:49.656Z,20.68
2017-01-04T07:40:30.139Z,20.86
2017-01-04T07:41:10.629Z,20.85
2017-01-04T07:41:51.118Z,20.9
2017-01-04T07:42:31.597Z,20.76
2017-01-04T07:43:12.096Z,20.85
2017-01-04T07:43:52.569Z,20.79
2017-01-04T07:44:33.065Z,20.71
2017-01-04T07:45:13.575Z,20.72
2017-01-04T07:45:54.044Z,21.01
2017-01-04T07:46:34.536Z,20.93
2017-01-04T07:47:15.018Z,20.94
2017-01-04T07:47:55.506Z,20.86
2017-01-04T07:48:35.990Z,20.94
2017-01-04T07:49:16.478Z,20.98
2017-01-04T07:49:56.970Z,21.01
2017-01-04T07:50:37.462Z,20.94
2017-01-04T07:51:17.967Z,20.88
2017-01-04T07:51:58.461Z,20.91
2017-01-04T07:52:38.946Z,20.96
2017-01-04T07:53:19.435Z,20.91
2017-01-04T07:53:59.929Z,20.86
2017-01-04T07:54:40.429Z,20.91
2017-01-04T07:55:20.909Z,20.98
2017-01-04T07:56:01.393Z,21.06
2017-01-04T07:56:41.880Z,21.06
2017-01-04T07:57:22.376Z,21.12
2017-01-04T07:58:02.872Z,21.09
2017-01-04T07:58:43.352Z,21.09
2017-01-04T07:59:23.841Z,21.04
2017-01-04T08:00:04.391Z,20.97
2017-01-04T08:00:44.893Z,20.91
2017-01-04T08:01:25.389Z,20.9
2017-01-04T08:02:05.906Z,21.04
2017-01-04T08:02:46.393Z,21.03
2017-01-04T08:03:27.186Z,20.9
2017-01-04T08:04:07.649Z,20.83
2017-01-04T08:04:48.143Z,20.76
2017-01-04T08:05:28.632Z,20.82
2017-01-04T08:06:09.147Z,20.93
2017-01-04T08:06:49.640Z,20.83
2017-01-04T08:07:30.134Z,20.85
2017-01-04T08:08:10.621Z,20.93
2017-01-04T08:08:51.102Z,20.91
2017-01-04T08:09:31.590Z,20.98
2017-01-04T08:10:12.085Z,20.9
2017-01-04T08:10:52.594Z,20.96
2017-01-04T08:11:33.086Z,20.88
2017-01-04T08:12:13.579Z,20.86
2017-01-04T08:12:54.081Z,20.88
2017-01-04T08:13:34.590Z,20.94
2017-01-04T08:14:15.081Z,20.97
2017-01-04T08:14:55.578Z,20.96
2017-01-04T08:15:36.059Z,20.98
2017-01-04T08:16:16.539Z,20.96
2017-01-04T08:16:57.036Z,20.93
2017-01-04T08:17:37.526Z,20.96
2017-01-04T08:18:18.025Z,20.96
2017-01-04T08:18:59.120Z,20.83
2017-01-04T08:19:39.620Z,20.94
2017-01-04T08:20:20.136Z,20.98
2017-01-04T08:21:00.643Z,20.96
2017-01-04T08:21:41.129Z,21.03
2017-01-04T08:22:21.635Z,21.03
2017-01-04T08:23:02.138Z,21
2017-01-04T08:23:42.637Z,21.11
2017-01-04T08:24:23.114Z,21.08
2017-01-04T08:25:03.597Z,20.96
2017-01-04T08:25:44.113Z,21.12
2017-01-04T08:26:24.596Z,21.08
2017-01-04T08:27:05.089Z,21.15
2017-01-04T08:27:45.585Z,20.98
2017-01-04T08:28:26.078Z,21.06
2017-01-04T08:29:06.593Z,21.03
2017-01-04T08:29:47.084Z,20.97
2017-01-04T08:30:27.581Z,20.96
2017-01-04T08:31:08.084Z,20.98
2017-01-04T08:31:48.582Z,20.94
2017-01-04T08:32:29.068Z,21.03
2017-01-04T08:33:09.557Z,20.96
2017-01-04T08:33:50.043Z,21.01
2017-01-04T08:34:30.533Z,20.96
2017-01-04T08:35:11.027Z,20.94
2017-01-04T08:35:51.519Z,21.08
2017-01-04T08:36:32.005Z,20.96
2017-01-04T08:37:12.501Z,21.19
2017-01-04T08:37:52.992Z,21.19
2017-01-04T08:38:33.482Z,21.13
2017-01-04T08:39:13.975Z,21.12
2017-01-04T08:39:54.467Z,21.21
2017-01-04T08:40:34.976Z,21.21
2017-01-04T08:41:15.470Z,21.09
2017-01-04T08:41:55.961Z,21.04
2017-01-04T08:42:36.446Z,21.18
2017-01-04T08:43:16.938Z,21.09
2017-01-04T08:43:57.425Z,21.11
2017-01-04T08:44:37.924Z,21.23
2017-01-04T08:45:18.420Z,21.21
2017-01-04T08:45:58.914Z,21.13
2017-01-04T08:46:39.415Z,21.09
2017-01-04T08:47:19.911Z,21.25